Time;durP1;ratioP1;P1;durP2;ratioP2;P2;SDS_P1;SDS_P2;PMS_P1;PMS_P2;Temp;Humidity;BMP_temperature;BMP_pressure;BME280_temperature;BME280_humidity;BME280_pressure;Samples;Min_cycle;Max_cycle;Signal;HPM_P1;HPM_P2
2020/12/02 06:00:35;;;;;;;117.67;59.57;;;;;;;-0.12;100.00;99610.78;1742475;77;21604;-59
2020/12/02 06:03:08;;;;;;;114.90;75.83;;;;;;;-0.20;100.00;99613.17;1681346;84;21170;-58
2020/12/02 06:05:39;;;;;;;62.23;32.20;;;;;;;-0.18;100.00;99613.04;1661846;85;21147;-58
2020/12/02 06:08:11;;;;;;;58.20;36.40;;;;;;;-0.13;100.00;99613.03;1650926;84;21514;-57
2020/12/02 06:10:48;;;;;;;25.30;14.30;;;;;;;-0.06;100.00;99613.36;1657347;84;21563;-58
2020/12/02 06:13:38;;;;;;;63.23;31.17;;;;;;;-0.02;100.00;99619.96;1669630;84;21345;-59
2020/12/02 06:16:32;;;;;;;51.63;24.53;;;;;;;0.06;100.00;99617.60;1775259;79;23395;-54
2020/12/02 06:19:25;;;;;;;30.13;20.63;;;;;;;-0.01;100.00;99627.61;1727907;80;21775;-50
2020/12/02 06:22:01;;;;;;;31.67;16.03;;;;;;;-0.03;100.00;99623.50;1701359;80;21124;-49
2020/12/02 06:24:46;;;;;;;40.77;18.27;;;;;;;-0.03;100.00;99623.50;1720846;82;21162;-51
2020/12/02 06:27:33;;;;;;;61.23;25.67;;;;;;;-0.02;100.00;99627.27;1689512;85;21182;-52
2020/12/02 06:30:12;;;;;;;204.90;94.77;;;;;;;-0.04;100.00;99623.16;1711067;84;21185;-50
2020/12/02 06:32:51;;;;;;;35.63;17.73;;;;;;;-0.11;100.00;99626.71;1714800;82;22362;-48
2020/12/02 06:35:33;;;;;;;139.93;72.93;;;;;;;-0.07;100.00;99622.91;1785828;79;22819;-54
2020/12/02 06:38:22;;;;;;;;;;;;;;;-0.11;100.00;99628.48;1761786;80;21639;-54
2020/12/02 06:41:03;;;;;;;103.73;54.90;;;;;;;-0.09;100.00;99627.87;1776969;80;20412;-58
2020/12/02 06:43:53;;;;;;;39.20;23.90;;;;;;;-0.05;100.00;99635.77;1785810;80;21165;-59
2020/12/02 06:47:06;;;;;;;33.93;19.43;;;;;;;-0.03;100.00;99629.98;1756076;82;21188;-50
2020/12/02 06:49:38;;;;;;;41.47;22.37;;;;;;;-0.05;100.00;99628.00;1756216;81;21318;-52
2020/12/02 06:52:13;;;;;;;839.40;566.47;;;;;;;-0.04;100.00;99623.98;1753455;82;21597;-60
2020/12/02 06:54:43;;;;;;;37.87;20.70;;;;;;;-0.02;100.00;99627.27;1751953;82;21202;-64
2020/12/02 06:57:25;;;;;;;66.57;34.77;;;;;;;0.03;100.00;99620.42;1753154;82;21199;-52
2020/12/02 07:00:03;;;;;;;29.53;13.93;;;;;;;0.04;100.00;99625.95;1735378;80;21221;-54
2020/12/02 07:02:56;;;;;;;51.60;32.47;;;;;;;0.08;100.00;99622.18;1720960;82;21224;-60
2020/12/02 07:05:45;;;;;;;21.50;10.80;;;;;;;0.12;100.00;99622.77;1704385;82;21156;-53
2020/12/02 07:08:28;;;;;;;102.17;70.87;;;;;;;0.09;100.00;99621.70;1712765;82;21193;-61
2020/12/02 07:11:15;;;;;;;47.20;30.77;;;;;;;0.14;100.00;99616.98;1736822;82;21538;-57
2020/12/02 07:13:50;;;;;;;31.63;18.17;;;;;;;0.25;100.00;99620.84;1724564;82;21344;-57
2020/12/02 07:16:33;;;;;;;34.03;17.90;;;;;;;0.31;100.00;99619.05;1755388;82;21480;-60
2020/12/02 07:19:10;;;;;;;62.53;42.10;;;;;;;0.39;100.00;99628.31;1708571;82;21551;-60
2020/12/02 07:22:13;;;;;;;143.53;123.67;;;;;;;0.46;100.00;99627.34;1659250;86;21248;-54
2020/12/02 07:25:07;;;;;;;38.37;24.53;;;;;;;0.53;100.00;99624.62;1682226;84;21192;-48
2020/12/02 07:27:45;;;;;;;54.20;26.33;;;;;;;0.61;100.00;99623.98;1664755;85;21176;-56
2020/12/02 07:30:26;;;;;;;27.70;13.30;;;;;;;0.63;100.00;99620.33;1661304;85;21208;-52
2020/12/02 07:32:55;;;;;;;31.20;19.17;;;;;;;0.64;100.00;99616.78;1656659;84;21189;-50
2020/12/02 07:35:25;;;;;;;30.60;18.23;;;;;;;0.59;100.00;99624.12;1655533;84;21588;-50
2020/12/02 07:38:09;;;;;;;36.33;24.47;;;;;;;0.60;100.00;99621.87;1663210;84;21687;-58
2020/12/02 07:40:40;;;;;;;23.43;12.83;;;;;;;0.61;100.00;99620.09;1644947;86;21351;-48
2020/12/02 07:43:26;;;;;;;36.30;24.37;;;;;;;0.64;100.00;99626.34;1644945;86;21711;-47
2020/12/02 07:45:57;;;;;;;58.23;47.10;;;;;;;0.68;100.00;99623.83;1645885;84;21181;-56
2020/12/02 07:48:30;;;;;;;;;;;;;;;0.73;99.84;99619.08;1692679;84;21601;-55
2020/12/02 07:51:31;;;;;;;27.10;14.67;;;;;;;0.75;99.29;99619.80;1688752;82;20176;-54
2020/12/02 07:54:23;;;;;;;18.73;9.53;;;;;;;0.74;99.16;99611.16;1690502;84;21204;-55
2020/12/02 07:56:53;;;;;;;18.23;8.93;;;;;;;0.72;98.96;99616.97;1716815;82;21158;-49
2020/12/02 07:59:26;;;;;;;22.53;11.93;;;;;;;0.73;98.53;99620.37;1727584;82;21200;-51
2020/12/02 08:02:10;;;;;;;18.60;9.60;;;;;;;0.74;98.30;99619.42;1703283;82;21181;-50
2020/12/02 08:04:54;;;;;;;19.30;10.53;;;;;;;0.74;98.15;99610.34;1682251;82;21128;-47
2020/12/02 08:07:24;;;;;;;23.37;10.77;;;;;;;0.72;98.10;99609.17;1707974;82;21143;-46
2020/12/02 08:09:59;;;;;;;26.50;15.07;;;;;;;0.72;98.42;99610.95;1706803;82;21155;-47
2020/12/02 08:12:30;;;;;;;55.73;33.77;;;;;;;0.76;98.34;99601.97;1691918;82;21209;-47
2020/12/02 08:15:07;;;;;;;261.02;165.20;;;;;;;0.72;97.85;99601.88;1702184;84;21181;-51
2020/12/02 08:17:39;;;;;;;104.10;58.20;;;;;;;0.70;98.14;99607.67;1737338;82;21633;-49
2020/12/02 08:20:32;;;;;;;106.70;65.33;;;;;;;0.74;97.97;99603.85;1690046;84;21344;-49
2020/12/02 08:23:23;;;;;;;95.30;71.93;;;;;;;0.75;97.92;99602.93;1683740;84;21226;-52
2020/12/02 08:26:19;;;;;;;42.27;29.13;;;;;;;0.81;98.29;99608.91;1704332;84;21190;-50
2020/12/02 08:28:51;;;;;;;66.23;47.93;;;;;;;0.92;98.00;99593.71;1709884;83;21562;-49
2020/12/02 08:31:27;;;;;;;186.00;132.37;;;;;;;0.98;97.19;99594.05;1694233;84;21174;-51
2020/12/02 08:34:30;;;;;;;32.97;18.70;;;;;;;0.99;96.72;99596.16;1686879;82;21448;-51
2020/12/02 08:37:23;;;;;;;28.77;15.57;;;;;;;0.99;96.67;99588.38;1704535;82;21818;-50
2020/12/02 08:39:55;;;;;;;32.47;23.97;;;;;;;1.03;96.56;99592.34;1714203;82;21562;-49
2020/12/02 08:42:33;;;;;;;34.60;27.27;;;;;;;1.08;96.21;99593.26;1715577;82;21624;-52
2020/12/02 08:45:25;;;;;;;27.13;16.60;;;;;;;1.13;96.09;99598.41;1716687;82;21383;-56
2020/12/02 08:47:56;;;;;;;18.03;9.63;;;;;;;1.22;95.72;99592.45;1686748;82;21178;-56
2020/12/02 08:50:29;;;;;;;16.53;9.20;;;;;;;1.30;94.41;99599.59;1722422;82;21165;-57
2020/12/02 08:53:00;;;;;;;45.37;38.63;;;;;;;1.30;94.05;99590.49;1695602;82;21304;-49
2020/12/02 08:55:32;;;;;;;24.60;15.13;;;;;;;1.30;93.91;99592.61;1663617;84;21145;-49
2020/12/02 08:58:06;;;;;;;22.70;13.77;;;;;;;1.35;93.44;99592.23;1678041;82;21335;-48
2020/12/02 09:00:38;;;;;;;20.57;11.60;;;;;;;1.37;93.10;99586.89;1706359;82;22271;-49
2020/12/02 09:03:10;;;;;;;21.05;10.45;;;;;;;1.39;93.00;99585.83;1714522;82;21322;-52
2020/12/02 09:05:40;;;;;;;21.33;10.33;;;;;;;1.41;92.75;99584.39;1715596;83;21133;-52
2020/12/02 09:08:11;;;;;;;19.33;10.87;;;;;;;1.39;92.12;99585.01;1714844;82;21794;-49
2020/12/02 09:10:40;;;;;;;;;;;;;;;1.39;92.14;99583.70;1717207;82;21160;-53
2020/12/02 09:13:11;;;;;;;27.47;16.77;;;;;;;1.37;92.08;99581.22;1695062;82;20291;-52
2020/12/02 09:15:42;;;;;;;21.37;11.33;;;;;;;1.38;91.99;99584.63;1725440;82;21560;-54
2020/12/02 09:18:17;;;;;;;33.80;21.03;;;;;;;1.38;92.77;99584.19;1731337;82;21177;-55
2020/12/02 09:20:49;;;;;;;176.27;115.87;;;;;;;1.43;92.41;99588.48;1737249;82;21165;-58
2020/12/02 09:23:28;;;;;;;41.80;24.17;;;;;;;1.47;91.67;99573.47;1663101;84;21114;-53
2020/12/02 09:25:59;;;;;;;25.90;14.80;;;;;;;1.50;91.47;99584.43;1683814;84;21207;-50
2020/12/02 09:28:28;;;;;;;25.87;13.90;;;;;;;1.48;91.28;99581.13;1680557;83;21204;-52
2020/12/02 09:30:58;;;;;;;113.07;81.17;;;;;;;1.50;91.40;99572.73;1709302;82;21198;-49
2020/12/02 09:33:27;;;;;;;28.63;17.73;;;;;;;1.50;90.94;99574.03;1713775;84;21143;-52
2020/12/02 09:35:57;;;;;;;18.90;9.37;;;;;;;1.48;91.19;99579.82;1721501;82;21170;-57
2020/12/02 09:38:29;;;;;;;21.57;11.20;;;;;;;1.50;90.85;99574.03;1683898;84;21645;-52
2020/12/02 09:41:23;;;;;;;36.10;21.00;;;;;;;1.53;91.25;99569.04;1685060;84;21190;-48
2020/12/02 09:44:39;;;;;;;32.60;18.27;;;;;;;1.57;91.04;99560.84;1660165;84;21170;-57
2020/12/02 09:47:15;;;;;;;17.27;8.50;;;;;;;1.54;90.93;99561.58;1699477;84;21218;-58
2020/12/02 09:49:46;;;;;;;33.63;20.47;;;;;;;1.47;90.65;99561.77;1661010;85;21197;-51
2020/12/02 09:52:43;;;;;;;16.05;8.05;;;;;;;1.45;90.90;99554.59;1652077;86;21230;-61
2020/12/02 09:55:24;;;;;;;14.53;6.97;;;;;;;1.48;91.49;99555.14;1634055;86;21215;-58
2020/12/02 09:57:53;;;;;;;13.30;7.20;;;;;;;1.57;91.05;99560.03;1671416;85;21142;-58
2020/12/02 10:00:23;;;;;;;13.87;7.60;;;;;;;1.59;90.41;99547.23;1670460;84;21173;-59
2020/12/02 10:03:12;;;;;;;37.53;27.40;;;;;;;1.60;90.58;99552.77;1701616;84;21648;-58
2020/12/02 10:06:12;;;;;;;16.00;7.90;;;;;;;1.63;90.32;99553.48;1704284;84;21172;-59
2020/12/02 10:09:14;;;;;;;14.50;7.10;;;;;;;1.60;89.98;99546.27;1703949;84;21351;-57
2020/12/02 10:12:22;;;;;;;56.63;44.20;;;;;;;1.57;90.05;99547.86;1704714;84;21201;-58
2020/12/02 10:15:06;;;;;;;29.57;18.77;;;;;;;1.54;89.95;99548.11;1697497;84;21607;-61
2020/12/02 10:17:43;;;;;;;22.83;14.77;;;;;;;1.58;90.15;99546.89;1696202;84;21730;-59
2020/12/02 10:20:27;;;;;;;62.37;48.63;;;;;;;1.63;90.14;99546.98;1678755;84;21183;-58
2020/12/02 10:23:35;;;;;;;25.97;13.97;;;;;;;1.67;90.32;99544.47;1709770;82;21613;-60
2020/12/02 10:26:37;;;;;;;21.97;10.00;;;;;;;1.70;90.08;99536.39;1745102;82;21166;-59
2020/12/02 10:29:14;;;;;;;17.90;8.17;;;;;;;1.76;89.99;99542.34;1726655;82;21157;-59
2020/12/02 10:31:55;;;;;;;13.73;7.73;;;;;;;1.76;89.40;99534.06;1715634;84;21556;-60
2020/12/02 10:34:34;;;;;;;12.88;7.33;;;;;;;1.76;89.41;99536.66;1716634;82;21180;-58
2020/12/02 10:37:08;;;;;;;12.27;6.53;;;;;;;1.77;89.40;99539.60;1731514;81;21188;-59
2020/12/02 10:39:38;;;;;;;10.20;6.10;;;;;;;1.75;88.67;99539.41;1731777;83;21160;-58
2020/12/02 10:42:32;;;;;;;11.10;6.30;;;;;;;1.73;88.62;99536.95;1731858;81;21337;-57
2020/12/02 10:45:12;;;;;;;23.73;14.50;;;;;;;1.71;88.74;99536.72;1731599;83;21219;-60
2020/12/02 10:48:21;;;;;;;16.87;10.48;;;;;;;1.72;89.12;99537.91;1731922;83;21184;-57
2020/12/02 10:50:51;;;;;;;24.87;14.60;;;;;;;1.75;89.43;99538.92;1731222;83;21124;-59
2020/12/02 10:53:25;;;;;;;17.33;9.73;;;;;;;1.74;89.24;99529.97;1707483;83;21160;-59
2020/12/02 10:56:02;;;;;;;14.23;7.67;;;;;;;1.76;89.50;99539.74;1728927;81;21323;-60
2020/12/02 10:58:37;;;;;;;17.93;9.77;;;;;;;1.77;89.13;99540.91;1722235;81;21981;-60
2020/12/02 11:01:08;;;;;;;27.80;18.07;;;;;;;1.78;89.10;99533.95;1710233;81;21656;-60
2020/12/02 11:03:41;;;;;;;12.97;7.27;;;;;;;1.81;89.27;99528.47;1675951;83;21208;-55
2020/12/02 11:06:27;;;;;;;12.70;6.80;;;;;;;1.85;89.15;99532.45;1708248;81;21185;-59
2020/12/02 11:09:40;;;;;;;12.53;6.67;;;;;;;1.80;88.65;99526.35;1722077;83;21185;-52
2020/12/02 11:12:29;;;;;;;12.40;6.83;;;;;;;1.79;88.43;99525.20;1721261;81;21572;-64
2020/12/02 11:15:26;;;;;;;12.90;7.20;;;;;;;1.73;88.86;99522.66;1719117;81;21588;-49
2020/12/02 11:18:51;;;;;;;13.10;7.13;;;;;;;1.69;88.98;99521.75;1751846;81;21163;-52
2020/12/02 11:22:01;;;;;;;13.03;7.20;;;;;;;1.60;89.15;99523.36;1761425;81;21327;-52
2020/12/02 11:24:56;;;;;;;14.30;7.73;;;;;;;1.62;89.59;99516.76;1761895;81;21201;-51
2020/12/02 11:27:27;;;;;;;12.63;6.90;;;;;;;1.62;89.89;99521.95;1761682;81;21197;-55
2020/12/02 11:30:00;;;;;;;15.13;7.87;;;;;;;1.63;89.87;99511.90;1762069;81;21332;-55
2020/12/02 11:32:54;;;;;;;14.57;7.57;;;;;;;1.63;90.05;99512.72;1736103;81;21165;-52
2020/12/02 11:36:01;;;;;;;13.37;7.70;;;;;;;1.70;90.25;99519.49;1713952;81;21189;-51
2020/12/02 11:39:05;;;;;;;18.13;9.03;;;;;;;1.72;89.66;99509.77;1684425;84;21677;-50
2020/12/02 11:41:45;;;;;;;15.87;8.27;;;;;;;1.73;89.97;99507.54;1684183;85;22287;-55
2020/12/02 11:44:24;;;;;;;13.50;7.22;;;;;;;1.70;89.63;99509.91;1684031;85;21206;-58
2020/12/02 11:47:09;;;;;;;16.17;8.50;;;;;;;1.65;89.60;99503.00;1697639;84;21418;-59
2020/12/02 11:49:40;;;;;;;18.23;8.53;;;;;;;1.66;89.83;99503.33;1699720;82;21368;-60
2020/12/02 11:52:26;;;;;;;14.20;8.37;;;;;;;1.69;89.92;99498.36;1709958;84;21228;-62
2020/12/02 11:54:55;;;;;;;16.63;8.97;;;;;;;1.71;90.03;99494.66;1710019;84;21190;-56
2020/12/02 11:57:25;;;;;;;16.30;7.90;;;;;;;1.77;89.84;99493.30;1709902;84;21162;-57
2020/12/02 11:59:56;;;;;;;14.70;7.77;;;;;;;1.76;89.61;99487.76;1713971;82;21718;-52
2020/12/02 12:02:31;;;;;;;16.07;8.23;;;;;;;1.71;89.57;99492.05;1715672;82;21153;-52
2020/12/02 12:05:25;;;;;;;21.47;9.80;;;;;;;1.72;89.59;99495.02;1715080;83;21161;-58
2020/12/02 12:08:21;;;;;;;26.13;14.03;;;;;;;1.75;89.82;99484.34;1653359;82;21204;-60
2020/12/02 12:10:59;;;;;;;22.80;12.23;;;;;;;1.80;89.79;99491.25;1744907;82;21218;-55
2020/12/02 12:13:56;;;;;;;34.33;20.93;;;;;;;1.80;89.90;99488.66;1745156;81;21166;-56
2020/12/02 12:16:34;;;;;;;38.63;27.07;;;;;;;1.80;89.92;99479.56;1698511;83;21174;-54
2020/12/02 12:19:44;;;;;;;20.47;11.23;;;;;;;1.85;89.87;99481.75;1695032;84;21190;-54
2020/12/02 12:22:40;;;;;;;19.20;11.37;;;;;;;1.92;89.97;99488.52;1693608;84;21118;-53
2020/12/02 12:25:22;;;;;;;14.27;7.87;;;;;;;1.94;89.35;99484.00;1708590;84;21198;-49
2020/12/02 12:28:04;;;;;;;16.17;8.80;;;;;;;1.91;88.96;99486.89;1707426;84;21194;-52
2020/12/02 12:30:36;;;;;;;17.93;8.47;;;;;;;1.85;88.85;99475.25;1707261;84;21182;-48
2020/12/02 12:33:35;;;;;;;13.73;7.30;;;;;;;1.80;89.20;99479.56;1669370;86;21195;-55
2020/12/02 12:36:09;;;;;;;15.10;8.07;;;;;;;1.83;89.87;99479.27;1709021;82;21198;-51
2020/12/02 12:38:49;;;;;;;13.80;7.57;;;;;;;1.94;89.88;99485.30;1685291;83;21201;-61
2020/12/02 12:41:30;;;;;;;15.10;7.70;;;;;;;1.99;89.59;99474.00;1695285;82;21172;-64
2020/12/02 12:44:06;;;;;;;14.77;7.73;;;;;;;2.02;89.36;99475.86;1696464;84;21144;-61
2020/12/02 12:46:54;;;;;;;14.63;7.83;;;;;;;2.06;88.71;99481.59;1707142;84;21191;-59
2020/12/02 12:49:28;;;;;;;17.57;9.75;;;;;;;2.01;88.22;99482.03;1687786;84;21182;-62
2020/12/02 12:52:02;;;;;;;16.20;8.57;;;;;;;1.95;88.46;99474.78;1692722;83;21151;-64
2020/12/02 12:54:36;;;;;;;18.43;9.53;;;;;;;1.94;88.57;99464.50;1648961;86;21157;-61
2020/12/02 12:57:17;;;;;;;16.13;8.50;;;;;;;1.94;88.91;99481.39;1696561;83;21154;-60
2020/12/02 13:00:02;;;;;;;17.17;8.67;;;;;;;1.97;89.15;99475.45;1696891;82;21187;-54
2020/12/02 13:02:36;;;;;;;18.00;9.40;;;;;;;2.04;88.88;99471.81;1706197;82;21621;-48
2020/12/02 13:05:13;;;;;;;18.10;9.57;;;;;;;2.08;88.92;99462.30;1660530;85;21162;-59
2020/12/02 13:07:46;;;;;;;19.73;10.00;;;;;;;2.15;88.48;99467.77;1692776;84;21151;-51
2020/12/02 13:10:46;;;;;;;21.15;10.03;;;;;;;2.13;88.06;99474.42;1662789;84;21295;-47
2020/12/02 13:13:53;;;;;;;17.80;8.90;;;;;;;2.05;87.81;99470.37;1715199;82;21296;-57
2020/12/02 13:16:34;;;;;;;18.50;9.30;;;;;;;1.96;88.03;99472.52;1706398;82;21291;-48
2020/12/02 13:19:25;;;;;;;19.80;9.57;;;;;;;1.94;88.33;99478.31;1695347;84;21182;-57
2020/12/02 13:21:59;;;;;;;20.30;10.60;;;;;;;1.99;88.91;99474.83;1709544;84;21166;-56
2020/12/02 13:24:37;;;;;;;17.20;8.53;;;;;;;2.09;88.89;99474.34;1698428;84;21197;-55
2020/12/02 13:27:17;;;;;;;14.40;7.47;;;;;;;2.18;88.68;99479.66;1708668;84;21127;-59
2020/12/02 13:29:47;;;;;;;14.33;7.87;;;;;;;2.17;88.02;99476.24;1692010;84;21214;-55
2020/12/02 13:32:24;;;;;;;17.83;9.53;;;;;;;2.19;88.32;99476.13;1697496;84;21226;-50
2020/12/02 13:34:54;;;;;;;19.70;9.93;;;;;;;2.26;88.13;99468.09;1707646;82;21189;-51
2020/12/02 13:37:25;;;;;;;17.93;8.77;;;;;;;2.25;87.94;99470.37;1699074;83;21199;-54
2020/12/02 13:39:55;;;;;;;18.95;8.65;;;;;;;2.30;87.73;99470.77;1724260;83;21758;-61
2020/12/02 13:42:25;;;;;;;17.40;8.40;;;;;;;2.29;87.28;99466.02;1718448;83;21560;-55
2020/12/02 13:45:10;;;;;;;18.80;9.20;;;;;;;2.30;87.02;99474.19;1710479;83;21599;-61
2020/12/02 13:47:39;;;;;;;15.73;8.53;;;;;;;2.21;87.01;99474.20;1709622;83;21212;-60
2020/12/02 13:50:14;;;;;;;17.30;9.00;;;;;;;2.16;87.30;99473.31;1710233;83;21296;-58
2020/12/02 13:52:48;;;;;;;14.43;7.87;;;;;;;2.14;87.42;99470.03;1670368;85;21193;-60
2020/12/02 13:55:43;;;;;;;17.43;9.73;;;;;;;2.11;87.30;99469.00;1706288;83;21580;-57
2020/12/02 13:58:29;;;;;;;18.77;10.20;;;;;;;2.04;87.32;99464.83;1730117;82;21592;-55
2020/12/02 14:01:31;;;;;;;17.47;8.90;;;;;;;1.93;87.69;99469.36;1724767;82;21185;-52
2020/12/02 14:04:36;;;;;;;18.00;10.55;;;;;;;1.84;88.37;99473.13;1723870;83;21307;-50
2020/12/02 14:07:09;;;;;;;16.40;8.93;;;;;;;1.81;88.79;99471.28;1723241;83;21192;-53
2020/12/02 14:09:49;;;;;;;18.40;9.30;;;;;;;1.84;89.22;99469.23;1721296;83;21143;-54
2020/12/02 14:12:26;;;;;;;20.07;9.97;;;;;;;1.80;89.19;99468.34;1723439;82;21308;-58
2020/12/02 14:15:01;;;;;;;24.37;11.10;;;;;;;1.74;89.58;99465.80;1716820;83;21328;-49
2020/12/02 14:17:31;;;;;;;22.37;12.03;;;;;;;1.78;89.97;99472.38;1709274;84;21206;-59
2020/12/02 14:20:01;;;;;;;33.70;15.37;;;;;;;1.78;89.89;99469.78;1703487;83;21362;-62
2020/12/02 14:22:33;;;;;;;36.50;16.40;;;;;;;1.82;90.26;99471.61;1702409;83;21169;-62
2020/12/02 14:25:05;;;;;;;35.03;16.27;;;;;;;1.87;90.16;99466.83;1711789;82;21291;-57
